createdAt,value
2023-04-29T00:02:01.215Z,12.20
2023-04-29T00:05:06.992Z,12.23
2023-04-29T00:08:10.726Z,12.21
2023-04-29T00:11:13.797Z,12.20
2023-04-29T00:14:19.799Z,12.19
2023-04-29T00:17:22.919Z,12.19
2023-04-29T00:20:27.260Z,12.17
2023-04-29T00:23:30.276Z,12.13
2023-04-29T00:26:33.611Z,12.17
2023-04-29T00:29:37.315Z,12.19
2023-04-29T00:32:40.983Z,12.12
2023-04-29T00:35:45.442Z,12.06
2023-04-29T00:38:48.525Z,12.01
2023-04-29T00:41:51.909Z,12.01
2023-04-29T00:44:56.143Z,12.02
2023-04-29T00:47:59.628Z,11.95
2023-04-29T00:51:04.910Z,11.96
2023-04-29T00:54:15.216Z,11.95
2023-04-29T00:57:22.699Z,12.00
2023-04-29T01:00:26.574Z,12.02
2023-04-29T01:03:30.696Z,12.06
2023-04-29T01:06:49.793Z,12.04
2023-04-29T01:10:04.262Z,12.05
2023-04-29T01:13:14.637Z,12.09
2023-04-29T01:16:26.827Z,12.07
2023-04-29T01:19:46.860Z,12.04
2023-04-29T01:22:51.371Z,12.00
2023-04-29T01:25:58.717Z,11.92
2023-04-29T01:29:29.702Z,11.85
2023-04-29T01:32:48.862Z,11.87
2023-04-29T01:36:05.285Z,11.82
2023-04-29T01:39:17.945Z,11.77
2023-04-29T01:42:36.741Z,11.75
2023-04-29T01:45:45.373Z,11.75
2023-04-29T01:48:49.577Z,11.75
2023-04-29T01:51:52.848Z,11.72
2023-04-29T01:54:56.518Z,11.72
2023-04-29T01:58:02.544Z,11.63
2023-04-29T02:01:31.495Z,11.46
2023-04-29T02:04:34.965Z,11.44
2023-04-29T02:07:41.807Z,11.39
2023-04-29T02:10:54.370Z,11.38
2023-04-29T02:14:08.278Z,11.37
2023-04-29T02:17:12.482Z,11.38
2023-04-29T02:20:22.202Z,11.37
2023-04-29T02:23:37.122Z,11.31
2023-04-29T02:26:43.275Z,11.34
2023-04-29T02:29:47.814Z,11.34
2023-04-29T02:32:55.844Z,11.35
2023-04-29T02:36:00.809Z,11.37
2023-04-29T02:39:04.476Z,11.34
2023-04-29T02:42:12.746Z,11.31
2023-04-29T02:45:20.505Z,11.25
2023-04-29T02:48:25.178Z,11.24
2023-04-29T02:51:49.895Z,11.21
2023-04-29T02:58:42.378Z,11.24
2023-04-29T03:01:59.103Z,11.22
2023-04-29T03:05:02.979Z,11.27
2023-04-29T03:08:07.645Z,11.28
2023-04-29T03:11:41.354Z,11.30
2023-04-29T03:20:37.097Z,11.30
2023-04-29T03:23:44.831Z,11.28
2023-04-29T03:26:53.886Z,11.28
2023-04-29T03:30:08.485Z,11.31
2023-04-29T03:33:22.477Z,11.32
2023-04-29T03:36:26.286Z,11.30
2023-04-29T03:39:44.687Z,11.28
2023-04-29T03:42:49.914Z,11.32
2023-04-29T03:45:53.829Z,11.35
2023-04-29T03:48:59.741Z,11.37
2023-04-29T03:52:04.798Z,11.41
2023-04-29T03:55:11.537Z,11.42
2023-04-29T03:58:14.864Z,11.45
2023-04-29T04:01:25.283Z,11.40
2023-04-29T04:04:28.935Z,11.47
2023-04-29T04:07:32.857Z,11.41
2023-04-29T04:11:03.190Z,11.43
2023-04-29T04:14:12.910Z,11.46
2023-04-29T04:17:16.209Z,11.50
2023-04-29T04:20:23.035Z,11.50
2023-04-29T04:23:26.694Z,11.54
2023-04-29T04:26:32.485Z,11.51
2023-04-29T04:29:44.447Z,11.56
2023-04-29T04:32:52.595Z,11.56
2023-04-29T04:35:58.011Z,11.65
2023-04-29T04:55:54.510Z,11.81
2023-04-29T04:58:57.913Z,11.82
2023-04-29T05:02:01.479Z,11.82
2023-04-29T05:05:05.148Z,11.88
2023-04-29T05:08:11.832Z,11.90
2023-04-29T05:11:25.464Z,11.91
2023-04-29T05:14:48.724Z,11.92
2023-04-29T05:18:27.463Z,11.91
2023-04-29T05:22:03.361Z,11.96
2023-04-29T05:26:13.466Z,12.00
2023-04-29T05:29:35.094Z,12.06
2023-04-29T05:32:39.334Z,12.06
2023-04-29T05:35:51.025Z,11.99
2023-04-29T05:39:05.279Z,12.01
2023-04-29T05:42:09.043Z,12.01
2023-04-29T05:45:18.995Z,12.07
2023-04-29T05:48:24.034Z,12.06
2023-04-29T05:51:31.703Z,12.09
2023-04-29T05:54:35.390Z,12.06
2023-04-29T05:57:38.564Z,12.05
2023-04-29T06:00:44.215Z,12.09
2023-04-29T06:03:54.238Z,12.17
2023-04-29T06:07:06.233Z,12.15
2023-04-29T06:10:24.805Z,12.16
2023-04-29T06:13:27.870Z,12.22
2023-04-29T06:16:32.385Z,12.27
2023-04-29T06:19:36.107Z,12.30
2023-04-29T06:22:39.384Z,12.30
2023-04-29T06:25:42.867Z,12.32
2023-04-29T06:28:46.542Z,12.34
2023-04-29T06:31:51.531Z,12.29
2023-04-29T06:34:54.668Z,12.36
2023-04-29T06:38:17.855Z,12.41
2023-04-29T06:41:34.118Z,12.47
2023-04-29T06:44:56.131Z,12.36
2023-04-29T06:48:39.048Z,12.40
2023-04-29T06:51:43.861Z,12.37
2023-04-29T06:54:46.921Z,12.29
2023-04-29T06:57:49.952Z,12.25
2023-04-29T07:00:53.328Z,12.23
2023-04-29T07:03:59.995Z,12.23
2023-04-29T07:07:03.771Z,12.19
2023-04-29T07:10:07.952Z,12.22
2023-04-29T07:13:11.150Z,12.22
2023-04-29T07:16:18.203Z,12.13
2023-04-29T07:19:22.927Z,12.10
2023-04-29T07:22:26.462Z,12.06
2023-04-29T07:25:29.684Z,12.00
2023-04-29T07:28:32.885Z,11.96
2023-04-29T07:31:38.401Z,11.96
2023-04-29T07:34:43.061Z,11.91
2023-04-29T07:37:46.612Z,11.84
2023-04-29T07:40:49.779Z,11.83
2023-04-29T07:43:52.892Z,11.80
2023-04-29T07:46:56.403Z,11.80
2023-04-29T07:50:00.961Z,11.81
2023-04-29T07:53:05.110Z,11.80
2023-04-29T07:56:09.789Z,11.74
2023-04-29T07:59:13.007Z,11.68
2023-04-29T08:02:16.813Z,11.69
2023-04-29T08:05:22.424Z,11.70
2023-04-29T08:08:26.095Z,11.68
2023-04-29T08:11:29.295Z,11.64
2023-04-29T08:14:32.458Z,11.68
2023-04-29T08:17:36.610Z,11.61
2023-04-29T08:20:49.849Z,11.50
2023-04-29T08:23:53.550Z,11.57
2023-04-29T08:26:56.585Z,11.47
2023-04-29T08:30:02.992Z,11.44
2023-04-29T08:33:06.521Z,11.37
2023-04-29T08:36:17.766Z,11.40
2023-04-29T08:39:23.611Z,11.41
2023-04-29T08:42:36.309Z,11.29
2023-04-29T08:45:40.980Z,11.23
2023-04-29T08:48:45.605Z,11.27
2023-04-29T08:51:52.439Z,11.27
2023-04-29T08:54:56.057Z,11.28
2023-04-29T08:58:00.138Z,11.37
2023-04-29T09:01:03.611Z,11.39
2023-04-29T09:04:21.753Z,11.37
2023-04-29T09:07:27.077Z,11.43
2023-04-29T09:10:30.477Z,11.30
2023-04-29T09:13:33.953Z,11.14
2023-04-29T09:16:39.463Z,11.09
2023-04-29T09:19:42.933Z,11.04
2023-04-29T09:22:50.484Z,10.94
2023-04-29T09:25:59.941Z,10.95
2023-04-29T09:29:11.627Z,10.90
2023-04-29T09:32:21.517Z,10.83
2023-04-29T09:35:26.994Z,10.86
2023-04-29T09:38:33.666Z,10.80
2023-04-29T09:41:37.223Z,10.87
2023-04-29T09:44:43.777Z,10.88
2023-04-29T09:47:46.857Z,10.94
2023-04-29T09:51:04.266Z,10.84
2023-04-29T09:54:22.095Z,10.78
2023-04-29T09:57:44.255Z,10.83
2023-04-29T10:00:48.657Z,10.73
2023-04-29T10:03:54.799Z,10.76
2023-04-29T10:06:58.307Z,10.80
2023-04-29T10:10:06.350Z,10.77
2023-04-29T10:13:09.609Z,10.70
2023-04-29T10:16:25.622Z,10.73
2023-04-29T10:19:36.262Z,10.81
2023-04-29T10:22:48.693Z,10.71
2023-04-29T10:25:54.582Z,10.69
2023-04-29T10:29:00.340Z,10.78
2023-04-29T10:32:08.668Z,10.81
2023-04-29T10:35:14.514Z,10.78
2023-04-29T10:38:27.502Z,10.79
2023-04-29T10:41:38.969Z,10.85
2023-04-29T10:45:27.295Z,10.99
2023-04-29T10:48:30.639Z,10.93
2023-04-29T10:51:35.429Z,11.06
2023-04-29T10:54:40.931Z,11.13
2023-04-29T10:57:45.311Z,11.27
2023-04-29T11:00:48.593Z,11.28
2023-04-29T11:03:59.300Z,11.29
2023-04-29T11:07:03.045Z,11.29
2023-04-29T11:10:08.619Z,11.32
2023-04-29T11:13:39.670Z,11.37
2023-04-29T11:16:50.309Z,11.41
2023-04-29T11:19:56.124Z,11.49
2023-04-29T11:23:01.805Z,11.57
2023-04-29T11:26:05.530Z,11.79
2023-04-29T11:29:11.476Z,12.00
2023-04-29T11:32:14.982Z,12.12
2023-04-29T11:35:19.790Z,12.02
2023-04-29T11:38:25.848Z,12.10
2023-04-29T11:41:29.291Z,12.11
2023-04-29T11:44:35.638Z,12.39
2023-04-29T11:47:43.164Z,12.67
2023-04-29T11:50:46.966Z,12.75
2023-04-29T11:53:50.026Z,12.79
2023-04-29T11:56:55.450Z,12.89
2023-04-29T12:00:00.360Z,13.13
2023-04-29T12:03:09.650Z,13.09
2023-04-29T12:06:15.076Z,13.05
2023-04-29T12:09:19.372Z,13.05
2023-04-29T12:12:22.529Z,13.01
2023-04-29T12:15:27.568Z,13.08
2023-04-29T12:18:31.692Z,13.03
2023-04-29T12:21:35.484Z,12.89
2023-04-29T12:24:40.109Z,12.84
2023-04-29T12:27:43.606Z,12.83
2023-04-29T12:30:49.328Z,12.77
2023-04-29T12:33:56.258Z,12.81
2023-04-29T12:37:01.228Z,12.90
2023-04-29T12:40:05.300Z,13.13
2023-04-29T12:43:09.529Z,13.19
2023-04-29T12:46:15.274Z,13.23
2023-04-29T12:49:20.454Z,13.16
2023-04-29T12:52:23.730Z,13.28
2023-04-29T12:55:27.005Z,13.19
2023-04-29T12:58:34.281Z,13.18
2023-04-29T13:01:39.894Z,13.31
2023-04-29T13:04:45.855Z,13.47
2023-04-29T13:07:48.976Z,13.74
2023-04-29T13:10:51.995Z,13.76
2023-04-29T13:13:55.149Z,13.76
2023-04-29T13:16:59.871Z,13.75
2023-04-29T13:20:03.369Z,13.84
2023-04-29T13:23:09.361Z,13.86
2023-04-29T13:26:12.414Z,13.89
2023-04-29T13:29:15.498Z,13.83
2023-04-29T13:32:24.621Z,13.87
2023-04-29T13:35:29.538Z,13.85
2023-04-29T13:38:33.094Z,13.85
2023-04-29T13:41:36.339Z,13.86
2023-04-29T13:51:33.319Z,14.19
2023-04-29T13:58:29.806Z,14.22
2023-04-29T14:03:58.673Z,13.96
2023-04-29T14:07:02.006Z,13.91
2023-04-29T14:10:06.242Z,14.06
2023-04-29T14:13:09.289Z,14.16
2023-04-29T14:16:17.380Z,14.17
2023-04-29T14:19:23.080Z,14.12
2023-04-29T14:22:27.420Z,14.21
2023-04-29T14:25:31.562Z,14.03
2023-04-29T14:28:37.124Z,14.02
2023-04-29T14:31:42.778Z,14.05
2023-04-29T14:34:47.342Z,14.18
2023-04-29T14:37:50.632Z,14.25
2023-04-29T14:41:08.668Z,14.24
2023-04-29T14:44:12.017Z,14.28
2023-04-29T14:47:15.107Z,14.37
2023-04-29T14:50:23.154Z,14.89
2023-04-29T14:53:26.467Z,15.43
2023-04-29T14:56:33.124Z,15.70
2023-04-29T14:59:36.315Z,15.32
2023-04-29T15:02:39.502Z,15.35
2023-04-29T15:05:43.984Z,15.17
2023-04-29T15:08:48.730Z,15.47
2023-04-29T15:11:52.176Z,15.31
2023-04-29T15:14:55.462Z,15.42
2023-04-29T15:17:58.891Z,15.54
2023-04-29T15:21:04.444Z,15.51
2023-04-29T15:24:09.341Z,15.32
2023-04-29T15:27:12.381Z,15.36
2023-04-29T15:30:18.976Z,15.63
2023-04-29T15:33:22.040Z,15.28
2023-04-29T15:36:32.202Z,15.07
2023-04-29T15:39:38.078Z,14.88
2023-04-29T15:42:41.604Z,14.89
2023-04-29T15:45:45.102Z,14.89
2023-04-29T15:48:48.249Z,14.92
2023-04-29T15:51:52.668Z,14.83
2023-04-29T15:54:55.676Z,14.69
2023-04-29T15:57:58.797Z,14.61
2023-04-29T16:01:02.121Z,14.51
2023-04-29T16:04:06.167Z,14.46
2023-04-29T16:07:10.651Z,14.62
2023-04-29T16:10:13.695Z,14.53
2023-04-29T16:13:16.778Z,14.49
2023-04-29T16:16:28.802Z,14.66
2023-04-29T16:19:36.828Z,14.75
2023-04-29T16:22:42.334Z,14.94
2023-04-29T16:25:45.420Z,14.93
2023-04-29T16:28:49.840Z,15.07
2023-04-29T16:31:53.780Z,15.05
2023-04-29T16:34:57.789Z,14.93
2023-04-29T16:38:04.207Z,14.86
2023-04-29T16:41:10.640Z,14.90
2023-04-29T16:44:19.697Z,14.69
2023-04-29T16:47:24.151Z,14.65
2023-04-29T16:50:27.708Z,14.66
2023-04-29T16:53:34.065Z,14.68
2023-04-29T16:56:37.911Z,14.76
2023-04-29T16:59:43.101Z,14.87
2023-04-29T17:02:51.023Z,14.82
2023-04-29T17:05:54.390Z,14.83
2023-04-29T17:09:00.135Z,14.81
2023-04-29T17:12:05.961Z,14.76
2023-04-29T17:15:10.218Z,14.75
2023-04-29T17:18:13.822Z,14.87
2023-04-29T17:21:17.278Z,14.77
2023-04-29T17:24:21.612Z,14.72
2023-04-29T17:27:25.085Z,14.73
2023-04-29T17:30:28.297Z,14.65
2023-04-29T17:33:35.297Z,14.57
2023-04-29T17:36:38.694Z,14.47
2023-04-29T17:39:43.378Z,14.29
2023-04-29T17:42:46.833Z,14.23
2023-04-29T17:45:49.902Z,14.20
2023-04-29T17:48:53.059Z,14.19
2023-04-29T17:51:56.047Z,14.12
2023-04-29T17:55:00.494Z,14.11
2023-04-29T17:58:03.537Z,14.01
2023-04-29T18:01:06.911Z,13.98
2023-04-29T18:04:10.026Z,14.02
2023-04-29T18:07:13.530Z,14.00
2023-04-29T18:10:19.128Z,13.94
2023-04-29T18:13:22.131Z,13.91
2023-04-29T18:16:26.064Z,13.90
2023-04-29T18:19:33.650Z,13.84
2023-04-29T18:22:36.883Z,13.76
2023-04-29T18:25:41.734Z,13.79
2023-04-29T18:28:46.739Z,13.83
2023-04-29T18:31:57.941Z,13.73
2023-04-29T18:38:23.291Z,13.51
2023-04-29T18:41:28.093Z,13.36
2023-04-29T18:44:33.365Z,13.04
2023-04-29T18:47:36.868Z,12.84
2023-04-29T18:50:41.025Z,12.69
2023-04-29T18:53:44.322Z,12.53
2023-04-29T18:56:50.337Z,12.32
2023-04-29T18:59:53.820Z,12.31
2023-04-29T19:02:58.276Z,12.19
2023-04-29T19:06:04.707Z,12.10
2023-04-29T19:09:08.199Z,12.30
2023-04-29T19:12:12.952Z,12.30
2023-04-29T19:15:17.632Z,12.12
2023-04-29T19:18:22.539Z,12.12
2023-04-29T19:21:25.752Z,12.14
2023-04-29T19:24:28.996Z,12.13
2023-04-29T19:27:33.656Z,11.95
2023-04-29T19:30:36.867Z,11.81
2023-04-29T19:33:49.902Z,11.81
2023-04-29T19:38:04.054Z,11.68
2023-04-29T19:42:06.345Z,11.58
2023-04-29T19:45:35.669Z,11.54
2023-04-29T19:48:38.978Z,11.40
2023-04-29T19:51:42.441Z,11.37
2023-04-29T19:54:45.694Z,11.38
2023-04-29T19:57:52.637Z,11.39
2023-04-29T20:00:57.284Z,11.43
2023-04-29T20:04:00.511Z,11.50
2023-04-29T20:07:03.901Z,11.66
2023-04-29T20:10:08.760Z,11.68
2023-04-29T20:13:12.379Z,11.65
2023-04-29T20:16:18.750Z,11.74
2023-04-29T20:23:00.737Z,11.63
2023-04-29T20:26:05.050Z,11.55
2023-04-29T20:29:10.338Z,11.35
2023-04-29T20:32:15.121Z,11.31
2023-04-29T20:35:18.548Z,11.27
2023-04-29T20:38:22.568Z,11.22
2023-04-29T20:41:28.580Z,11.17
2023-04-29T20:44:32.138Z,11.05
2023-04-29T20:47:36.563Z,11.03
2023-04-29T20:50:40.170Z,11.09
2023-04-29T20:53:43.222Z,11.04
2023-04-29T20:56:46.341Z,11.19
2023-04-29T20:59:49.671Z,11.15
2023-04-29T21:02:53.962Z,11.24
2023-04-29T21:05:58.008Z,11.24
2023-04-29T21:09:01.227Z,11.13
2023-04-29T21:12:06.100Z,11.15
2023-04-29T21:15:10.345Z,11.10
2023-04-29T21:18:15.295Z,11.01
2023-04-29T21:21:22.939Z,10.93
2023-04-29T21:24:26.877Z,11.08
2023-04-29T21:27:30.171Z,11.09
2023-04-29T21:30:33.174Z,11.16
2023-04-29T21:33:40.936Z,11.15
2023-04-29T21:36:43.998Z,11.16
2023-04-29T21:39:50.988Z,11.10
2023-04-29T21:42:55.325Z,11.09
2023-04-29T21:45:58.607Z,11.01
2023-04-29T21:49:04.565Z,10.93
2023-04-29T21:52:09.137Z,10.78
2023-04-29T21:55:12.391Z,10.72
2023-04-29T21:58:16.187Z,10.63
2023-04-29T22:01:40.298Z,10.55
2023-04-29T22:04:44.760Z,10.43
2023-04-29T22:07:50.757Z,10.34
2023-04-29T22:11:20.447Z,10.22
2023-04-29T22:14:35.483Z,10.23
2023-04-29T22:17:41.674Z,10.18
2023-04-29T22:20:46.048Z,10.11
2023-04-29T22:23:50.138Z,10.10
2023-04-29T22:26:53.699Z,10.04
2023-04-29T22:30:00.043Z,10.06
2023-04-29T22:33:03.569Z,10.00
2023-04-29T22:36:11.156Z,9.97
2023-04-29T22:39:16.472Z,9.92
2023-04-29T22:42:20.275Z,9.82
2023-04-29T22:45:24.095Z,9.82
2023-04-29T22:48:31.337Z,9.73
2023-04-29T22:51:36.105Z,9.67
2023-04-29T22:54:40.149Z,9.55
2023-04-29T22:57:43.323Z,9.47
2023-04-29T23:00:46.625Z,9.42
2023-04-29T23:03:49.641Z,9.40
2023-04-29T23:06:54.060Z,9.35
2023-04-29T23:09:58.393Z,9.27
2023-04-29T23:13:04.953Z,9.26
2023-04-29T23:16:12.961Z,9.20
2023-04-29T23:19:24.477Z,9.07
2023-04-29T23:22:37.395Z,9.06
2023-04-29T23:25:40.465Z,9.02
2023-04-29T23:28:43.460Z,8.95
2023-04-29T23:31:47.068Z,8.89
2023-04-29T23:34:51.705Z,8.82
2023-04-29T23:37:56.564Z,8.81
2023-04-29T23:41:02.135Z,8.77
2023-04-29T23:44:05.176Z,8.71
2023-04-29T23:47:08.245Z,8.59
2023-04-29T23:50:11.484Z,8.56
2023-04-29T23:53:16.013Z,8.59
2023-04-29T23:56:20.761Z,8.40
2023-04-29T23:59:23.912Z,8.36
